Time;durP1;ratioP1;P1;durP2;ratioP2;P2;SDS_P1;SDS_P2;PMS_P1;PMS_P2;Temp;Humidity;BMP_temperature;BMP_pressure;BME280_temperature;BME280_humidity;BME280_pressure;Samples;Min_cycle;Max_cycle;Signal;HPM_P1;HPM_P2
2022/01/21 00:01:33;;;;;;;8.70;2.80;;;;;;;0.04;71.68;100059.00;4462656;32;34672;-82
2022/01/21 00:04:19;;;;;;;4.40;1.65;;;;;;;0.39;71.18;100060.94;4458858;32;34892;-82
2022/01/21 00:07:08;;;;;;;6.47;2.00;;;;;;;1.04;68.45;100063.47;4462488;32;34846;-82
2022/01/21 00:09:54;;;;;;;4.72;1.90;;;;;;;0.97;68.72;100054.69;4458541;32;34337;-82
2022/01/21 00:12:40;;;;;;;9.02;2.20;;;;;;;-0.27;73.74;100066.31;4460838;32;34527;-81
2022/01/21 00:15:27;;;;;;;9.75;2.12;;;;;;;0.14;71.82;100067.37;4460329;32;36010;-82
2022/01/21 00:18:17;;;;;;;7.45;2.60;;;;;;;0.47;72.01;100070.56;4460045;32;34566;-81
2022/01/21 00:30:23;;;;;;;4.20;1.42;;;;;;;-0.74;74.93;100078.72;4462231;32;35432;-79
2022/01/21 00:33:10;;;;;;;4.30;1.50;;;;;;;-0.91;75.06;100079.38;4462613;32;34251;-78
2022/01/21 00:35:58;;;;;;;2.60;0.82;;;;;;;-0.85;74.83;100076.81;4473900;32;34565;-77
2022/01/21 00:38:47;;;;;;;2.12;1.05;;;;;;;-0.83;74.91;100061.25;4475384;32;35106;-81
2022/01/21 00:41:42;;;;;;;3.10;1.02;;;;;;;-0.83;75.19;100047.81;4477611;32;33720;-78
2022/01/21 00:44:28;;;;;;;2.95;1.20;;;;;;;-0.53;73.90;100054.03;4476727;32;35033;-80
2022/01/21 00:47:15;;;;;;;6.65;1.33;;;;;;;-0.88;75.29;100055.72;4464489;32;35544;-81
2022/01/21 00:50:05;;;;;;;5.12;1.67;;;;;;;-1.00;76.25;100053.78;4474594;32;34998;-80
2022/01/21 00:52:51;;;;;;;4.62;1.52;;;;;;;-0.92;75.49;100052.69;4463400;32;34683;-82
2022/01/21 00:55:38;;;;;;;3.45;1.25;;;;;;;-1.05;76.03;100053.66;4473334;32;35065;-79
2022/01/21 00:58:27;;;;;;;5.15;1.30;;;;;;;-1.05;76.01;100061.75;4464529;32;34508;-82
2022/01/21 01:01:14;;;;;;;2.67;0.90;;;;;;;-0.97;76.66;100080.28;4479856;32;36010;-80
2022/01/21 01:04:02;;;;;;;6.28;1.17;;;;;;;-0.71;75.85;100083.69;4478538;32;34771;-81
2022/01/21 01:06:53;;;;;;;3.78;1.02;;;;;;;-0.89;76.34;100079.12;4476263;32;35189;-81
2022/01/21 01:09:42;;;;;;;6.43;1.20;;;;;;;-0.93;76.89;100086.00;4473714;32;34622;-79
2022/01/21 01:19:54;;;;;;;5.82;1.10;;;;;;;-1.22;77.53;100076.81;4474476;32;34670;-78
2022/01/21 01:21:58;;;;;;;3.30;0.70;;;;;;;-1.42;78.30;100085.91;4476639;32;35474;-81
2022/01/21 01:27:52;;;;;;;1.67;0.47;;;;;;;-1.55;79.19;100094.06;4474206;32;35254;-81
2022/01/21 01:30:39;;;;;;;2.33;0.65;;;;;;;-1.43;79.02;100095.00;4478003;32;34156;-78
2022/01/21 01:33:34;;;;;;;2.60;0.52;;;;;;;-1.69;79.75;100096.06;4475882;32;34550;-78
2022/01/21 01:36:20;;;;;;;3.33;0.60;;;;;;;-1.61;79.92;100089.59;4475775;32;34977;-79
2022/01/21 01:39:32;;;;;;;2.45;0.68;;;;;;;-1.70;80.31;100096.28;4473553;32;34624;-78
2022/01/21 01:51:17;;;;;;;3.22;0.52;;;;;;;-1.66;80.72;100106.34;4472306;32;34635;-78
2022/01/21 01:54:13;;;;;;;0.57;0.30;;;;;;;-1.83;81.99;100114.13;4475003;32;33204;-77
2022/01/21 01:56:59;;;;;;;4.03;0.73;;;;;;;-1.66;82.42;100124.34;4475364;32;34629;-78
2022/01/21 01:59:46;;;;;;;3.45;0.80;;;;;;;-1.81;83.71;100128.19;4473930;32;35754;-79
2022/01/21 02:02:32;;;;;;;2.30;0.62;;;;;;;-1.84;84.64;100117.88;4471590;32;34735;-80
2022/01/21 02:05:19;;;;;;;1.92;0.62;;;;;;;-1.70;84.83;100120.47;4476904;32;34385;-80
2022/01/21 02:08:06;;;;;;;1.17;0.50;;;;;;;-1.83;85.34;100127.56;4476771;32;34756;-79
2022/01/21 02:10:54;;;;;;;3.10;0.60;;;;;;;-1.76;85.55;100126.72;4466581;32;35002;-79
2022/01/21 02:13:46;;;;;;;5.93;0.98;;;;;;;-1.77;85.84;100122.37;4476316;32;35283;-79
2022/01/21 02:16:43;;;;;;;2.92;0.52;;;;;;;-1.85;86.28;100126.97;4478069;32;34270;-79
2022/01/21 02:22:44;;;;;;;1.37;0.50;;;;;;;-1.79;86.46;100119.91;4474945;32;36030;-81
2022/01/21 02:25:31;;;;;;;1.98;0.50;;;;;;;-1.62;86.22;100114.81;4462439;32;35409;-79
2022/01/21 02:28:18;;;;;;;1.60;0.52;;;;;;;-1.53;85.14;100105.44;4478446;32;35113;-80
2022/01/21 02:31:04;;;;;;;3.42;0.68;;;;;;;-1.37;85.15;100091.44;4477215;32;34520;-80
2022/01/21 02:33:53;;;;;;;2.70;0.52;;;;;;;-1.78;86.80;100107.31;4479474;32;35010;-79
2022/01/21 02:36:39;;;;;;;2.65;0.70;;;;;;;-1.74;86.61;100105.81;4490388;31;35499;-78
2022/01/21 02:39:26;;;;;;;2.70;0.70;;;;;;;-1.78;86.72;100104.63;4493122;31;35746;-80
2022/01/21 02:42:13;;;;;;;4.12;0.90;;;;;;;-1.89;87.14;100103.44;4477877;31;35484;-80
2022/01/21 02:44:59;;;;;;;5.57;0.80;;;;;;;-1.71;86.29;100091.94;4469642;31;33888;-80
2022/01/21 02:47:48;;;;;;;3.80;0.80;;;;;;;-1.71;85.87;100081.19;4476389;31;34626;-79
2022/01/21 02:50:34;;;;;;;2.75;0.88;;;;;;;-1.78;86.29;100089.31;4490171;31;34094;-79
2022/01/21 02:53:37;;;;;;;4.43;0.77;;;;;;;-2.11;87.63;100095.72;4488107;31;34634;-79
2022/01/21 02:56:24;;;;;;;3.12;0.75;;;;;;;-2.14;88.35;100106.91;4493598;31;36008;-80
2022/01/21 02:59:11;;;;;;;6.40;0.98;;;;;;;-2.03;87.43;100108.09;4478423;31;34753;-78
2022/01/21 03:01:59;;;;;;;3.50;0.80;;;;;;;-1.88;86.58;100092.50;4478582;31;34366;-78
2022/01/21 03:04:57;;;;;;;3.70;0.82;;;;;;;-1.95;86.62;100098.94;4466325;31;34614;-80
2022/01/21 03:07:45;;;;;;;2.62;0.85;;;;;;;-1.82;86.22;100099.69;4478770;31;35130;-79
2022/01/21 03:10:31;;;;;;;0.80;0.45;;;;;;;-1.60;85.53;100113.53;4490008;31;34612;-81
2022/01/21 03:13:20;;;;;;;3.15;0.90;;;;;;;-1.80;86.41;100112.88;4489812;31;35021;-81
2022/01/21 03:16:06;;;;;;;3.58;1.17;;;;;;;-1.82;86.42;100110.41;4478486;31;35550;-77
2022/01/21 03:18:53;;;;;;;3.42;1.20;;;;;;;-1.87;86.66;100112.94;4468521;31;35992;-78
2022/01/21 03:21:39;;;;;;;2.67;1.02;;;;;;;-1.81;86.22;100124.69;4478617;31;35576;-77
2022/01/21 03:24:30;;;;;;;5.68;1.30;;;;;;;-1.85;86.32;100120.75;4489845;31;34183;-78
2022/01/21 03:27:17;;;;;;;4.00;1.30;;;;;;;-1.90;86.63;100129.50;4493047;31;34589;-80
2022/01/21 03:30:08;;;;;;;3.15;1.20;;;;;;;-1.83;86.42;100135.63;4480597;31;36535;-78
2022/01/21 03:32:54;;;;;;;2.83;1.20;;;;;;;-1.88;86.60;100135.47;4478309;31;35332;-77
2022/01/21 03:35:41;;;;;;;1.67;0.90;;;;;;;-1.84;86.04;100144.72;4495197;31;33082;-77
2022/01/21 03:38:28;;;;;;;2.50;1.00;;;;;;;-1.84;85.42;100138.53;4471495;31;34569;-78
2022/01/21 03:41:14;;;;;;;4.18;1.00;;;;;;;-1.91;84.48;100148.50;4493083;31;34969;-78
2022/01/21 03:44:01;;;;;;;3.95;1.10;;;;;;;-1.87;83.96;100144.34;4478542;31;34619;-78
2022/01/21 03:46:49;;;;;;;2.90;0.77;;;;;;;-1.74;84.04;100148.78;4481615;31;34159;-77
2022/01/21 03:49:41;;;;;;;4.30;1.48;;;;;;;-1.90;84.12;100126.81;4493340;31;33572;-80
2022/01/21 03:52:28;;;;;;;6.32;1.02;;;;;;;-1.75;83.73;100136.41;4491188;31;34285;-78
2022/01/21 03:55:16;;;;;;;3.33;0.73;;;;;;;-1.73;83.64;100137.03;4492136;31;34948;-78
2022/01/21 03:58:05;;;;;;;2.62;0.93;;;;;;;-1.89;82.44;100128.44;4494204;31;33307;-78
2022/01/21 04:00:52;;;;;;;3.75;1.23;;;;;;;-1.89;81.70;100166.03;4470881;31;34270;-77
2022/01/21 04:03:40;;;;;;;2.30;0.57;;;;;;;-1.90;80.66;100140.22;4477283;31;36022;-79
2022/01/21 04:06:26;;;;;;;3.78;0.82;;;;;;;-1.89;80.46;100131.13;4475680;31;34651;-78
2022/01/21 04:09:13;;;;;;;5.53;1.08;;;;;;;-1.97;80.40;100136.75;4476250;31;35171;-78
2022/01/21 04:11:59;;;;;;;4.35;1.10;;;;;;;-1.94;79.32;100128.25;4487539;31;34974;-78
2022/01/21 04:14:46;;;;;;;3.08;0.95;;;;;;;-2.12;80.13;100125.50;4476913;31;34869;-82
2022/01/21 04:17:32;;;;;;;2.25;1.10;;;;;;;-2.09;77.95;100151.91;4469243;31;35468;-77
2022/01/21 04:20:19;;;;;;;2.12;0.43;;;;;;;-2.09;78.35;100115.13;4490618;31;32169;-78
2022/01/21 04:23:06;;;;;;;2.22;0.80;;;;;;;-2.13;77.69;100113.12;4489855;31;34697;-78
2022/01/21 04:25:53;;;;;;;3.17;1.10;;;;;;;-2.23;77.89;100150.34;4475325;31;35022;-77
2022/01/21 04:28:40;;;;;;;2.97;0.98;;;;;;;-2.22;77.63;100120.62;4489393;31;34569;-77
2022/01/21 04:31:27;;;;;;;2.72;0.90;;;;;;;-2.21;77.93;100143.72;4478353;31;34086;-78
2022/01/21 04:34:14;;;;;;;3.10;0.80;;;;;;;-2.20;77.25;100140.00;4480775;31;34628;-76
2022/01/21 04:37:01;;;;;;;6.40;1.00;;;;;;;-2.20;77.15;100152.59;4473791;31;34598;-77
2022/01/21 04:39:55;;;;;;;3.70;1.00;;;;;;;-2.42;77.92;100150.25;4479229;31;35453;-76
2022/01/21 04:48:52;;;;;;;3.60;0.80;;;;;;;-2.35;76.51;100171.66;4489584;31;35059;-76
2022/01/21 04:51:48;;;;;;;4.65;0.80;;;;;;;-2.29;76.69;100174.31;4488674;31;34784;-75
2022/01/21 04:54:35;;;;;;;4.12;1.00;;;;;;;-2.38;77.10;100189.03;4497629;31;35323;-78
2022/01/21 04:57:21;;;;;;;5.05;1.20;;;;;;;-2.33;76.72;100199.13;4479118;31;34530;-77
2022/01/21 05:00:09;;;;;;;2.37;0.77;;;;;;;-2.44;77.13;100181.00;4490633;31;35076;-77
2022/01/21 05:02:56;;;;;;;4.45;1.02;;;;;;;-2.41;76.99;100186.75;4478778;31;34564;-78
2022/01/21 05:05:43;;;;;;;4.57;1.10;;;;;;;-2.42;77.30;100195.00;4476555;31;35430;-77
2022/01/21 05:08:53;;;;;;;3.40;1.10;;;;;;;-2.44;76.96;100184.50;4479601;31;34325;-78
2022/01/21 05:11:40;;;;;;;5.47;1.17;;;;;;;-2.36;76.86;100189.63;4477561;31;34115;-76
2022/01/21 05:14:43;;;;;;;2.33;1.20;;;;;;;-2.48;77.07;100191.31;4479338;31;33232;-77
2022/01/21 05:17:30;;;;;;;2.58;1.20;;;;;;;-2.42;76.63;100185.13;4489372;31;34206;-78
2022/01/21 05:20:18;;;;;;;3.58;1.50;;;;;;;-2.43;75.90;100188.00;4476608;31;35421;-76
2022/01/21 05:23:04;;;;;;;6.47;1.42;;;;;;;-2.40;75.54;100203.69;4477604;31;34900;-77
2022/01/21 05:25:50;;;;;;;2.97;0.95;;;;;;;-2.39;75.23;100210.69;4478414;31;34349;-76
2022/01/21 05:28:37;;;;;;;6.57;1.12;;;;;;;-2.46;75.00;100226.81;4479382;31;34260;-77
2022/01/21 05:31:26;;;;;;;3.97;1.30;;;;;;;-2.39;74.87;100234.84;4479427;31;34509;-81
2022/01/21 05:34:13;;;;;;;6.70;1.23;;;;;;;-2.41;74.66;100229.69;4491140;31;35008;-79
2022/01/21 05:37:02;;;;;;;4.40;1.00;;;;;;;-2.40;74.92;100230.53;4480725;31;34793;-80
2022/01/21 05:39:49;;;;;;;2.87;1.00;;;;;;;-2.37;74.95;100219.34;4489072;31;35144;-80
2022/01/21 05:42:37;;;;;;;2.28;0.68;;;;;;;-2.42;75.40;100216.47;4477406;31;35468;-82
2022/01/21 05:48:30;;;;;;;5.60;1.33;;;;;;;-2.66;76.33;100228.75;4493652;31;35668;-81
2022/01/21 05:51:18;;;;;;;7.57;1.35;;;;;;;-2.61;76.66;100223.56;4477181;31;35577;-78
2022/01/21 05:54:08;;;;;;;1.87;0.80;;;;;;;-2.58;76.59;100256.16;4484123;31;35473;-79
2022/01/21 05:56:55;;;;;;;4.15;1.37;;;;;;;-2.64;76.74;100240.91;4476453;31;35008;-77
2022/01/21 05:59:42;;;;;;;3.35;1.35;;;;;;;-2.74;76.40;100259.28;4489430;31;35594;-80
2022/01/21 06:02:33;;;;;;;5.70;1.87;;;;;;;-2.72;76.82;100255.38;4474073;31;35091;-80
2022/01/21 06:05:19;;;;;;;8.03;2.17;;;;;;;-2.89;77.04;100275.59;4474137;31;34696;-79
2022/01/21 06:08:06;;;;;;;4.93;1.30;;;;;;;-2.85;77.52;100263.41;4485222;31;34702;-77
2022/01/21 06:10:52;;;;;;;2.37;1.20;;;;;;;-2.53;76.21;100274.34;4484587;31;35188;-77
2022/01/21 06:13:39;;;;;;;4.95;1.50;;;;;;;-3.00;77.37;100289.62;4489374;31;33839;-79
2022/01/21 06:16:26;;;;;;;7.45;1.23;;;;;;;-2.95;77.84;100297.87;4494023;31;34830;-77
2022/01/21 06:19:14;;;;;;;6.57;1.08;;;;;;;-2.87;77.50;100305.72;4475333;31;35653;-78
2022/01/21 06:22:01;;;;;;;4.25;1.37;;;;;;;-2.93;77.80;100309.25;4490977;31;35639;-78
2022/01/21 06:24:47;;;;;;;6.93;1.40;;;;;;;-3.12;78.72;100324.28;4492237;31;35090;-78
2022/01/21 06:27:36;;;;;;;5.32;1.30;;;;;;;-3.09;78.67;100339.13;4484378;31;35529;-78
2022/01/21 06:30:22;;;;;;;4.80;1.50;;;;;;;-3.09;78.43;100333.75;4490931;31;34946;-84
2022/01/21 06:33:09;;;;;;;7.90;2.62;;;;;;;-3.29;79.26;100345.28;4476750;31;35481;-78
2022/01/21 06:35:55;;;;;;;3.92;1.37;;;;;;;-3.27;79.59;100355.81;4488517;31;34191;-80
2022/01/21 06:38:41;;;;;;;4.82;1.92;;;;;;;-3.22;79.05;100354.12;4480329;31;34247;-81
2022/01/21 06:41:30;;;;;;;5.40;1.10;;;;;;;-3.19;79.28;100353.75;4493443;31;34957;-78
2022/01/21 06:44:20;;;;;;;4.37;1.52;;;;;;;-3.14;79.20;100349.63;4477450;31;34380;-77
2022/01/21 06:47:06;;;;;;;4.12;1.50;;;;;;;-3.25;79.74;100354.53;4479663;31;34351;-77
2022/01/21 06:49:54;;;;;;;2.95;1.48;;;;;;;-3.38;79.94;100362.56;4465230;31;35567;-76
2022/01/21 06:52:43;;;;;;;6.80;1.83;;;;;;;-3.32;79.74;100361.75;4487669;31;35691;-76
2022/01/21 06:55:29;;;;;;;8.20;1.60;;;;;;;-3.44;79.89;100372.25;4493258;31;35435;-74
2022/01/21 06:58:16;;;;;;;4.85;1.20;;;;;;;-3.26;79.03;100365.47;4491631;31;35127;-79
2022/01/21 07:01:05;;;;;;;3.53;1.52;;;;;;;-3.37;79.08;100385.66;4481140;31;35493;-78
2022/01/21 07:03:51;;;;;;;3.03;1.37;;;;;;;-3.25;78.58;100384.03;4476133;31;34903;-78
2022/01/21 07:06:38;;;;;;;5.60;1.30;;;;;;;-3.17;78.36;100397.25;4495279;31;34648;-77
2022/01/21 07:09:25;;;;;;;4.72;1.67;;;;;;;-3.16;77.87;100395.38;4489935;31;34179;-78
2022/01/21 07:12:12;;;;;;;4.45;1.33;;;;;;;-3.26;78.02;100401.16;4486959;31;35237;-75
2022/01/21 07:15:05;;;;;;;3.42;1.15;;;;;;;-3.24;77.50;100415.19;4493453;31;35025;-81
2022/01/21 07:17:53;;;;;;;9.27;1.90;;;;;;;-2.89;76.13;100415.06;4481741;31;35426;-81
2022/01/21 07:20:39;;;;;;;7.87;1.98;;;;;;;-3.08;76.39;100423.87;4488699;31;35105;-80
2022/01/21 07:23:26;;;;;;;4.90;1.50;;;;;;;-2.94;76.04;100434.41;4476262;31;34678;-82
2022/01/21 07:26:14;;;;;;;3.85;1.73;;;;;;;-2.73;75.28;100427.25;4481571;31;35923;-81
2022/01/21 07:29:01;;;;;;;7.80;2.37;;;;;;;-2.74;74.41;100434.47;4488893;31;34676;-80
2022/01/21 07:31:51;;;;;;;10.35;3.87;;;;;;;-2.89;74.48;100424.97;4492173;31;34216;-78
2022/01/21 07:34:37;;;;;;;4.97;1.67;;;;;;;-2.69;74.33;100439.22;4479741;31;35419;-80
2022/01/21 07:37:31;;;;;;;2.17;0.80;;;;;;;-2.63;73.33;100421.47;4494490;31;35698;-80
2022/01/21 07:40:17;;;;;;;5.82;1.73;;;;;;;-2.44;72.92;100419.84;4478215;31;35043;-80
2022/01/21 07:43:04;;;;;;;4.95;1.70;;;;;;;-2.72;73.72;100404.75;4495064;31;34178;-80
2022/01/21 07:45:51;;;;;;;7.93;1.65;;;;;;;-2.58;73.17;100410.97;4489627;31;33631;-80
2022/01/21 07:48:37;;;;;;;5.07;1.98;;;;;;;-2.54;72.00;100406.81;4489413;31;35016;-79
2022/01/21 07:51:23;;;;;;;10.02;2.35;;;;;;;-2.51;71.98;100393.00;4486237;31;34847;-80
2022/01/21 07:54:11;;;;;;;3.30;1.17;;;;;;;-2.49;71.33;100404.34;4477038;31;34197;-78
2022/01/21 07:56:58;;;;;;;4.35;1.10;;;;;;;-2.58;70.66;100403.72;4480144;31;35565;-81
2022/01/21 07:59:44;;;;;;;3.20;1.00;;;;;;;-2.52;70.13;100410.13;4492267;31;34940;-81
2022/01/21 08:02:31;;;;;;;4.82;1.20;;;;;;;-2.64;69.97;100433.25;4491947;31;35529;-77
2022/01/21 08:05:19;;;;;;;4.22;0.93;;;;;;;-2.33;69.59;100419.22;4469446;31;34215;-80
2022/01/21 08:08:05;;;;;;;4.62;1.00;;;;;;;-2.63;69.26;100424.97;4491033;31;35588;-80
2022/01/21 08:10:51;;;;;;;5.43;1.45;;;;;;;-2.35;68.92;100410.53;4480500;31;35944;-79
2022/01/21 08:13:37;;;;;;;3.87;1.25;;;;;;;-2.43;69.36;100403.53;4485030;31;34435;-82
2022/01/21 08:16:23;;;;;;;9.48;1.73;;;;;;;-2.39;68.27;100410.16;4474064;31;32788;-76
2022/01/21 08:19:10;;;;;;;2.37;1.02;;;;;;;-2.33;68.74;100422.72;4486174;31;35649;-75
2022/01/21 08:21:57;;;;;;;2.90;0.88;;;;;;;-2.47;68.46;100402.31;4477331;31;35574;-76
2022/01/21 08:24:45;;;;;;;3.42;0.90;;;;;;;-2.29;67.98;100389.06;4489783;31;34325;-79
2022/01/21 08:27:32;;;;;;;4.10;1.12;;;;;;;-2.28;67.49;100380.00;4487535;31;34352;-80
2022/01/21 08:30:18;;;;;;;3.47;1.15;;;;;;;-2.32;66.88;100402.06;4490414;31;35146;-81
2022/01/21 08:33:04;;;;;;;5.22;1.70;;;;;;;-2.16;66.97;100388.22;4486395;31;34946;-84
2022/01/21 08:35:53;;;;;;;3.22;0.88;;;;;;;-2.28;66.81;100404.16;4474853;31;33482;-80
2022/01/21 08:38:40;;;;;;;3.25;0.93;;;;;;;-2.28;66.75;100400.63;4476515;31;34393;-76
2022/01/21 08:41:26;;;;;;;3.70;0.70;;;;;;;-2.11;66.91;100403.69;4468824;31;34565;-78
2022/01/21 08:44:13;;;;;;;5.57;1.02;;;;;;;-2.04;66.45;100399.16;4478775;31;35068;-79
2022/01/21 08:47:02;;;;;;;2.53;0.77;;;;;;;-1.97;66.19;100409.87;4476639;31;34208;-81
2022/01/21 08:50:01;;;;;;;3.03;1.10;;;;;;;-2.19;66.11;100420.88;4475820;31;34209;-80
2022/01/21 08:52:48;;;;;;;2.37;1.05;;;;;;;-2.20;65.40;100439.84;4473356;31;35527;-81
2022/01/21 08:55:35;;;;;;;6.45;1.00;;;;;;;-1.98;65.78;100427.03;4477207;31;34906;-76
2022/01/21 08:58:21;;;;;;;4.28;1.25;;;;;;;-2.09;65.09;100441.91;4468399;31;34637;-82
2022/01/21 09:01:09;;;;;;;3.10;1.08;;;;;;;-1.99;64.27;100452.22;4490311;31;34227;-78
2022/01/21 09:03:55;;;;;;;5.12;0.90;;;;;;;-1.79;64.07;100457.56;4477552;31;33484;-79
2022/01/21 09:06:42;;;;;;;4.80;1.20;;;;;;;-1.67;63.67;100461.28;4479018;31;34808;-81
2022/01/21 09:09:29;;;;;;;6.57;1.27;;;;;;;-1.93;63.41;100467.53;4489542;31;34576;-80
2022/01/21 09:12:15;;;;;;;4.43;0.95;;;;;;;-1.94;63.79;100461.31;4470182;31;33808;-81
2022/01/21 09:15:05;;;;;;;42.08;12.75;;;;;;;-1.55;63.11;100472.19;4485867;31;34583;-79
2022/01/21 09:17:52;;;;;;;8.02;1.92;;;;;;;-1.30;62.18;100466.94;4490271;31;34681;-81
2022/01/21 09:20:38;;;;;;;11.55;1.92;;;;;;;-1.45;62.72;100469.88;4491234;31;34635;-82
2022/01/21 09:23:25;;;;;;;4.82;1.12;;;;;;;-1.59;63.45;100469.09;4477004;31;35114;-84
2022/01/21 09:26:11;;;;;;;1.98;0.70;;;;;;;-1.60;63.50;100465.56;4484537;31;35554;-82
2022/01/21 09:29:00;;;;;;;5.05;1.30;;;;;;;-1.46;62.35;100484.37;4491264;31;34952;-82
2022/01/21 09:31:46;;;;;;;6.30;1.20;;;;;;;-1.51;61.46;100482.28;4481069;31;34981;-79
2022/01/21 09:34:41;;;;;;;5.15;1.00;;;;;;;-1.42;62.22;100485.59;4485086;31;35243;-80
2022/01/21 09:37:28;;;;;;;2.60;0.73;;;;;;;-1.42;60.91;100489.13;4474023;31;34644;-82
2022/01/21 09:40:16;;;;;;;7.00;1.40;;;;;;;-1.38;61.53;100494.87;4484359;31;34699;-80
2022/01/21 09:43:04;;;;;;;3.37;1.30;;;;;;;-1.28;61.73;100483.66;4483477;31;34513;-79
2022/01/21 09:45:54;;;;;;;5.82;1.12;;;;;;;-0.87;61.04;100477.91;4477115;31;34796;-76
2022/01/21 09:49:06;;;;;;;3.72;0.73;;;;;;;-0.84;60.78;100471.28;4481349;31;34176;-76
2022/01/21 09:51:58;;;;;;;6.87;1.12;;;;;;;-1.20;62.78;100483.44;4490847;31;36038;-79
2022/01/21 09:54:48;;;;;;;3.57;0.90;;;;;;;-1.38;61.88;100487.63;4476896;31;35518;-77
2022/01/21 09:57:35;;;;;;;3.15;1.20;;;;;;;-1.47;62.71;100499.66;4481746;31;35016;-78
2022/01/21 10:00:24;;;;;;;3.05;0.98;;;;;;;-1.31;62.56;100487.63;4467451;31;34166;-85
2022/01/21 10:03:11;;;;;;;4.30;1.23;;;;;;;-1.05;62.20;100492.09;4477512;31;34914;-79
2022/01/21 10:06:03;;;;;;;4.82;1.00;;;;;;;-1.19;62.25;100488.63;4474685;31;35339;-79
2022/01/21 10:08:54;;;;;;;5.53;1.95;;;;;;;-1.35;63.01;100481.03;4477716;31;34132;-80
2022/01/21 10:11:46;;;;;;;6.75;1.62;;;;;;;-0.91;62.23;100480.22;4473009;31;35513;-79
2022/01/21 10:14:32;;;;;;;6.50;2.37;;;;;;;-0.90;61.69;100470.28;4485750;31;34914;-80
2022/01/21 10:17:18;;;;;;;5.28;2.00;;;;;;;-1.06;62.39;100474.28;4483668;31;34628;-81
2022/01/21 10:20:16;;;;;;;10.18;3.08;;;;;;;-0.87;62.32;100469.84;4485087;31;34139;-79
2022/01/21 10:23:06;;;;;;;7.03;2.17;;;;;;;-1.10;62.40;100478.44;4475036;31;34793;-82
2022/01/21 10:26:02;;;;;;;10.00;1.90;;;;;;;-0.84;62.35;100479.34;4476102;31;36008;-79
2022/01/21 10:28:54;;;;;;;7.72;2.20;;;;;;;-0.69;61.81;100472.62;4477243;31;34860;-81
2022/01/21 10:31:54;;;;;;;3.87;1.25;;;;;;;-0.61;62.50;100463.47;4488835;31;35273;-84
2022/01/21 10:34:45;;;;;;;6.78;1.83;;;;;;;-0.83;61.92;100472.91;4489613;31;34328;-80
2022/01/21 10:37:35;;;;;;;6.45;2.60;;;;;;;-1.04;62.57;100461.44;4486161;31;35638;-79
2022/01/21 10:40:22;;;;;;;6.40;2.25;;;;;;;-1.12;64.42;100468.94;4476913;31;35398;-81
2022/01/21 10:43:17;;;;;;;4.95;1.90;;;;;;;-1.29;64.36;100458.66;4487882;31;33866;-82
2022/01/21 10:46:04;;;;;;;6.40;1.65;;;;;;;-0.95;64.03;100470.09;4481116;31;34733;-82
2022/01/21 10:49:01;;;;;;;6.05;1.85;;;;;;;-0.94;63.82;100472.59;4487805;31;34970;-81
2022/01/21 10:51:50;;;;;;;5.43;1.15;;;;;;;-1.05;64.73;100475.94;4477147;31;34672;-80
2022/01/21 10:54:49;;;;;;;5.10;1.58;;;;;;;-1.00;64.31;100500.31;4479651;31;34176;-81
2022/01/21 10:57:36;;;;;;;3.75;1.30;;;;;;;-1.15;65.08;100491.69;4478731;31;35503;-80
2022/01/21 11:00:22;;;;;;;5.85;1.80;;;;;;;-1.14;65.73;100483.44;4478764;31;35177;-82
2022/01/21 11:03:13;;;;;;;9.23;1.85;;;;;;;-1.08;65.70;100491.66;4488205;31;34623;-81
2022/01/21 11:06:18;;;;;;;4.35;1.52;;;;;;;-1.21;65.46;100481.81;4486435;31;35008;-80
2022/01/21 11:09:12;;;;;;;11.12;1.83;;;;;;;-1.14;65.91;100477.19;4481769;31;34364;-82
2022/01/21 11:12:11;;;;;;;7.53;2.37;;;;;;;-0.95;65.07;100473.59;4473682;31;34992;-81
2022/01/21 11:15:03;;;;;;;9.35;2.10;;;;;;;-1.05;64.99;100475.94;4495089;31;34398;-80
2022/01/21 11:17:58;;;;;;;6.12;1.70;;;;;;;-1.38;66.54;100471.50;4487771;31;34719;-82
2022/01/21 11:20:48;;;;;;;9.38;2.35;;;;;;;-1.14;65.99;100474.50;4488015;31;35729;-80
2022/01/21 11:23:37;;;;;;;8.30;2.72;;;;;;;-1.26;66.44;100484.28;4474390;31;36607;-81
2022/01/21 11:26:23;;;;;;;10.70;2.10;;;;;;;-1.21;65.89;100453.03;4487860;31;34494;-81
2022/01/21 11:29:11;;;;;;;10.73;2.50;;;;;;;-0.81;65.00;100460.09;4492059;31;34280;-81
2022/01/21 11:31:57;;;;;;;2.70;1.30;;;;;;;-0.98;64.89;100462.44;4474955;31;34399;-79
2022/01/21 11:34:43;;;;;;;10.07;3.05;;;;;;;-1.11;64.51;100433.78;4467965;31;34808;-79
2022/01/21 11:37:30;;;;;;;4.35;1.50;;;;;;;-1.21;64.67;100430.72;4474676;31;34653;-77
2022/01/21 11:40:19;;;;;;;7.57;2.03;;;;;;;-0.88;63.61;100425.16;4478821;31;34173;-76
2022/01/21 11:43:07;;;;;;;8.77;1.85;;;;;;;-1.10;63.91;100415.75;4478923;31;34348;-76
2022/01/21 11:49:25;;;;;;;3.97;1.40;;;;;;;-0.93;63.33;100381.94;4482127;31;35907;-77
2022/01/21 11:52:20;;;;;;;4.90;1.42;;;;;;;-0.98;63.28;100371.00;4477359;31;34019;-77
2022/01/21 11:55:06;;;;;;;5.57;1.30;;;;;;;-0.94;62.50;100361.44;4481287;31;34642;-83
2022/01/21 11:58:10;;;;;;;6.55;1.35;;;;;;;-0.69;61.93;100369.53;4489233;31;35046;-82
2022/01/21 12:00:56;;;;;;;7.40;1.67;;;;;;;-0.77;61.34;100359.03;4484783;31;35501;-78
2022/01/21 12:03:53;;;;;;;5.47;2.12;;;;;;;-0.79;61.26;100351.19;4488337;31;35180;-80
2022/01/21 12:06:40;;;;;;;3.95;1.17;;;;;;;-0.88;61.76;100348.97;4488531;31;34616;-80
2022/01/21 12:09:56;;;;;;;2.45;1.05;;;;;;;-0.74;61.48;100363.97;4491358;31;36120;-78
2022/01/21 12:12:50;;;;;;;5.93;1.35;;;;;;;-0.31;60.08;100333.59;4474185;31;34507;-80
2022/01/21 12:18:55;;;;;;;8.30;3.12;;;;;;;-0.16;59.40;100349.41;4488198;31;34614;-80
2022/01/21 12:21:43;;;;;;;6.37;1.70;;;;;;;-0.28;59.61;100341.22;4495544;31;34933;-80
2022/01/21 12:24:54;;;;;;;22.65;7.45;;;;;;;-0.21;59.24;100341.16;4492057;31;34419;-78
2022/01/21 12:28:29;;;;;;;35.70;13.45;;;;;;;-0.07;59.48;100351.56;4480962;31;35223;-77
2022/01/21 12:31:16;;;;;;;17.45;6.40;;;;;;;-0.02;58.61;100338.25;4441149;31;34754;-78
2022/01/21 12:34:11;;;;;;;;;;;;;;;0.08;57.40;100328.81;4477219;31;34998;-78
2022/01/21 12:37:07;;;;;;;10.38;2.25;;;;;;;-0.11;57.09;100353.06;4473917;31;34943;-82
2022/01/21 12:39:54;;;;;;;11.15;4.35;;;;;;;0.15;57.07;100334.97;4488009;31;33825;-78
2022/01/21 12:42:40;;;;;;;14.93;3.90;;;;;;;0.11;57.70;100325.66;4467250;31;33600;-77
2022/01/21 12:45:27;;;;;;;8.18;1.25;;;;;;;0.25;58.13;100340.62;4478809;31;35110;-81
2022/01/21 12:48:34;;;;;;;9.73;1.75;;;;;;;0.07;58.29;100343.34;4476177;31;36257;-78
2022/01/21 12:57:17;;;;;;;5.30;1.02;;;;;;;0.53;57.69;100358.13;4481026;31;35895;-81
2022/01/21 13:00:10;;;;;;;5.90;1.92;;;;;;;0.34;56.95;100358.16;4483246;31;35151;-80
2022/01/21 13:02:58;;;;;;;5.30;1.77;;;;;;;0.14;57.06;100355.72;4474461;31;35055;-81
2022/01/21 13:06:20;;;;;;;4.75;1.50;;;;;;;0.03;56.92;100355.59;4476172;31;34653;-78
2022/01/21 13:09:09;;;;;;;6.32;1.50;;;;;;;-0.22;57.80;100356.50;4457771;31;34834;-79
2022/01/21 13:12:06;;;;;;;4.55;1.30;;;;;;;0.27;56.12;100365.50;4479502;31;34501;-78
2022/01/21 13:14:55;;;;;;;5.03;1.30;;;;;;;0.04;55.45;100386.91;4479733;31;34963;-82
2022/01/21 13:17:41;;;;;;;4.57;1.40;;;;;;;0.18;55.79;100397.31;4474876;31;34668;-82
2022/01/21 13:20:29;;;;;;;8.02;1.30;;;;;;;0.24;55.91;100365.13;4492627;31;34697;-80
2022/01/21 13:23:52;;;;;;;7.30;1.42;;;;;;;0.10;55.43;100377.94;4493184;31;34815;-81
2022/01/21 13:26:41;;;;;;;2.92;0.98;;;;;;;0.01;54.97;100376.59;4459614;31;35406;-82
2022/01/21 13:29:33;;;;;;;12.70;4.05;;;;;;;-0.22;54.43;100369.97;4484376;31;34607;-83
2022/01/21 13:32:22;;;;;;;4.37;1.20;;;;;;;-0.05;53.97;100372.91;4476441;31;35753;-80
2022/01/21 13:35:18;;;;;;;8.65;1.83;;;;;;;0.05;53.49;100370.50;4488840;31;35509;-79
2022/01/21 13:38:16;;;;;;;17.95;4.82;;;;;;;0.15;53.44;100368.12;4478900;31;34090;-79
2022/01/21 13:41:07;;;;;;;9.45;3.00;;;;;;;0.17;53.65;100370.56;4477866;31;35520;-80
2022/01/21 13:43:53;;;;;;;5.35;1.65;;;;;;;0.58;52.95;100360.97;4491119;31;34985;-77
2022/01/21 13:46:39;;;;;;;6.53;1.70;;;;;;;0.15;53.16;100353.81;4483214;31;34240;-78
2022/01/21 13:49:27;;;;;;;4.37;1.83;;;;;;;0.30;52.65;100356.13;4485806;31;34252;-78
2022/01/21 13:52:13;;;;;;;4.70;1.58;;;;;;;-0.08;53.53;100349.94;4463971;31;34535;-79
2022/01/21 13:55:00;;;;;;;6.55;1.42;;;;;;;-0.02;53.44;100340.94;4457255;31;35142;-81
2022/01/21 13:57:46;;;;;;;7.12;0.98;;;;;;;-0.06;53.41;100331.69;4486183;31;35572;-80
2022/01/21 14:00:38;;;;;;;7.18;1.10;;;;;;;-0.16;53.94;100315.19;4488418;31;34110;-78
2022/01/21 14:03:33;;;;;;;7.62;1.60;;;;;;;-0.19;54.49;100323.72;4476038;31;35687;-80